Time;durP1;ratioP1;P1;durP2;ratioP2;P2;SDS_P1;SDS_P2;PMS_P1;PMS_P2;Temp;Humidity;BMP_temperature;BMP_pressure;BME280_temperature;BME280_humidity;BME280_pressure;Samples;Min_cycle;Max_cycle;Signal;HPM_P1;HPM_P2
2021/12/31 00:00:30;;;;;;;218.88;126.15;;;205.30;2252.80;;;;;;5033232;28;20025;-58
2021/12/31 00:02:56;;;;;;;202.73;119.82;;;205.30;2252.80;;;;;;5033191;28;20045;-58
2021/12/31 00:05:22;;;;;;;110.88;66.55;;;205.40;2252.80;;;;;;5033278;28;20297;-58
2021/12/31 00:07:47;;;;;;;114.60;70.55;;;205.30;2252.80;;;;;;5033216;28;20077;-58
2021/12/31 00:10:13;;;;;;;74.45;46.45;;;205.40;2252.80;;;;;;5033033;28;20065;-58
2021/12/31 00:12:41;;;;;;;79.30;52.67;;;205.40;2252.80;;;;;;5033677;28;20036;-58
2021/12/31 00:15:07;;;;;;;120.15;78.03;;;205.50;2252.80;;;;;;5033199;28;20017;-58
2021/12/31 00:17:33;;;;;;;194.82;111.50;;;205.50;2252.80;;;;;;5033114;28;20022;-57
2021/12/31 00:20:03;;;;;;;239.93;155.07;;;205.40;2252.80;;;;;;5032960;28;20017;-57
2021/12/31 00:24:58;;;;;;;199.77;131.82;;;205.40;2252.80;;;;;;5033104;28;20029;-58
2021/12/31 00:27:24;;;;;;;159.60;102.20;;;205.40;2252.80;;;;;;5032657;28;20097;-58
2021/12/31 00:29:50;;;;;;;129.80;82.28;;;205.50;2252.80;;;;;;5033108;28;20029;-58
2021/12/31 00:32:18;;;;;;;207.20;136.48;;;205.60;2252.80;;;;;;5032565;28;20029;-59
2021/12/31 00:34:44;;;;;;;181.38;126.07;;;205.60;2252.80;;;;;;5032619;28;20360;-58
2021/12/31 00:37:10;;;;;;;236.07;154.80;;;205.70;2252.80;;;;;;5032865;28;20026;-58
2021/12/31 00:39:36;;;;;;;327.50;212.27;;;205.70;2252.80;;;;;;5032602;28;20364;-58
2021/12/31 00:42:02;;;;;;;328.05;218.40;;;205.70;2252.80;;;;;;5032934;28;20067;-58
2021/12/31 00:44:27;;;;;;;191.32;128.60;;;205.70;2252.80;;;;;;5033021;28;20145;-58
2021/12/31 00:46:53;;;;;;;247.20;163.85;;;205.60;2252.80;;;;;;5032406;28;20461;-58
2021/12/31 00:49:19;;;;;;;364.10;245.57;;;205.50;2252.80;;;;;;5032577;28;20032;-58
2021/12/31 00:51:44;;;;;;;298.85;210.43;;;205.50;2252.80;;;;;;5032448;28;20061;-59
2021/12/31 00:54:10;;;;;;;339.92;228.40;;;205.40;2252.80;;;;;;5032682;28;20021;-58
2021/12/31 00:56:36;;;;;;;186.65;121.70;;;205.60;2252.80;;;;;;5032245;28;20017;-58
2021/12/31 00:59:02;;;;;;;151.95;104.55;;;205.60;2252.80;;;;;;5032666;28;20029;-58
2021/12/31 01:01:30;;;;;;;167.55;106.78;;;205.60;2252.80;;;;;;5031990;28;20057;-58
2021/12/31 01:03:56;;;;;;;196.63;130.90;;;205.70;2252.80;;;;;;5032098;28;20034;-57
2021/12/31 01:06:22;;;;;;;181.73;121.35;;;205.60;2252.80;;;;;;5031743;28;20021;-58
2021/12/31 01:08:48;;;;;;;222.52;146.57;;;205.60;2252.80;;;;;;5032376;28;20025;-57
2021/12/31 01:11:14;;;;;;;239.38;159.60;;;205.70;2252.80;;;;;;5032017;28;20033;-59
2021/12/31 01:14:00;;;;;;;195.63;129.18;;;205.60;2252.80;;;;;;5032202;28;20033;-58
2021/12/31 01:16:35;;;;;;;109.07;74.93;;;205.70;2252.80;;;;;;5031995;28;20091;-57
2021/12/31 01:21:27;;;;;;;196.00;134.85;;;205.70;2252.80;;;;;;5031849;28;20407;-58
2021/12/31 01:23:53;;;;;;;224.25;147.52;;;205.70;2252.80;;;;;;5031679;28;20024;-58
2021/12/31 01:26:19;;;;;;;170.20;109.88;;;205.70;2252.80;;;;;;5031980;28;20104;-58
2021/12/31 01:28:45;;;;;;;121.57;80.90;;;205.60;2252.80;;;;;;5031679;28;20214;-58
2021/12/31 01:31:11;;;;;;;120.28;81.65;;;205.60;2252.80;;;;;;5031558;28;20026;-58
2021/12/31 01:33:37;;;;;;;126.00;80.75;;;205.50;2252.80;;;;;;5031982;28;20028;-58
2021/12/31 01:36:06;;;;;;;134.38;84.28;;;205.70;2252.80;;;;;;5031600;28;20033;-58
2021/12/31 01:38:34;;;;;;;120.43;75.18;;;205.70;2252.80;;;;;;5031484;28;20017;-58
2021/12/31 01:41:00;;;;;;;108.95;70.95;;;205.70;2252.80;;;;;;5031811;28;20120;-58
2021/12/31 01:43:25;;;;;;;97.43;62.70;;;230.40;2252.80;;;;;;5031554;28;20483;-58
2021/12/31 01:45:55;;;;;;;84.22;56.65;;;205.70;2252.80;;;;;;5031689;28;20391;-58
2021/12/31 01:48:36;;;;;;;81.63;52.80;;;205.60;2252.80;;;;;;5031620;28;20083;-58
2021/12/31 01:51:03;;;;;;;70.15;49.17;;;205.60;2252.80;;;;;;5032570;28;20022;-59
2021/12/31 01:53:29;;;;;;;82.18;54.65;;;205.60;2252.80;;;;;;5032731;28;20144;-58
2021/12/31 01:56:00;;;;;;;79.25;54.42;;;205.50;2252.80;;;;;;5032538;28;20017;-62
2021/12/31 01:58:27;;;;;;;104.25;65.78;;;205.30;2252.80;;;;;;5031240;28;20037;-58
2021/12/31 02:00:54;;;;;;;90.60;65.55;;;205.30;2252.80;;;;;;5030678;28;20046;-57
2021/12/31 02:03:22;;;;;;;100.72;66.18;;;205.30;2252.80;;;;;;5031253;28;20387;-58
2021/12/31 02:05:48;;;;;;;96.38;65.30;;;205.30;2252.80;;;;;;5031005;28;20598;-57
2021/12/31 02:08:15;;;;;;;101.55;72.43;;;205.30;2252.80;;;;;;5030691;28;20034;-57
2021/12/31 02:10:41;;;;;;;86.13;58.72;;;205.40;2252.80;;;;;;5031043;28;20486;-58
2021/12/31 02:13:09;;;;;;;79.75;57.35;;;205.40;2252.80;;;;;;5031183;28;20033;-58
2021/12/31 02:15:36;;;;;;;82.13;59.75;;;205.50;2252.80;;;;;;5030863;28;20037;-58
2021/12/31 02:18:03;;;;;;;77.93;49.50;;;205.50;2252.80;;;;;;5030359;28;20033;-58
2021/12/31 02:20:40;;;;;;;62.40;43.28;;;205.50;2252.80;;;;;;5030805;28;20025;-57
2021/12/31 02:23:06;;;;;;;56.70;39.58;;;205.50;2252.80;;;;;;5030916;28;20386;-58
2021/12/31 02:25:33;;;;;;;48.00;34.05;;;205.40;2252.80;;;;;;5030820;28;20036;-58
2021/12/31 02:27:59;;;;;;;39.72;28.27;;;205.30;2252.80;;;;;;5030913;28;20041;-58
2021/12/31 02:30:25;;;;;;;37.05;25.50;;;205.40;2252.80;;;;;;5030426;28;20100;-57
2021/12/31 02:32:51;;;;;;;35.80;24.85;;;205.30;2252.80;;;;;;5030668;28;20033;-58
2021/12/31 02:35:17;;;;;;;78.35;47.40;;;205.30;2252.80;;;;;;5030221;28;20064;-58
2021/12/31 02:37:43;;;;;;;95.90;58.38;;;205.40;2252.80;;;;;;5030482;28;20029;-58
2021/12/31 02:40:12;;;;;;;61.92;40.40;;;205.40;2252.80;;;;;;5030755;28;20052;-58
2021/12/31 02:42:39;;;;;;;77.78;45.72;;;205.60;2252.80;;;;;;5030487;28;20056;-58
2021/12/31 02:45:09;;;;;;;129.32;75.95;;;205.50;2252.80;;;;;;5030525;28;20025;-59
2021/12/31 02:47:37;;;;;;;78.38;50.75;;;205.50;2252.80;;;;;;5030291;28;20069;-58
2021/12/31 02:50:05;;;;;;;55.80;38.13;;;205.60;2252.80;;;;;;5030368;28;20013;-58
2021/12/31 02:52:31;;;;;;;156.70;94.20;;;205.70;2252.80;;;;;;5030608;28;20125;-58
2021/12/31 02:55:00;;;;;;;53.70;39.22;;;205.70;2252.80;;;;;;5030090;28;20038;-58
2021/12/31 02:57:26;;;;;;;63.10;43.55;;;230.40;2252.80;;;;;;5030238;28;20036;-58
2021/12/31 02:59:52;;;;;;;41.90;27.02;;;230.40;2252.80;;;;;;5030336;28;20490;-58
2021/12/31 03:02:24;;;;;;;38.63;27.00;;;230.60;2252.80;;;;;;5029986;28;20053;-57
2021/12/31 03:04:51;;;;;;;32.60;21.50;;;230.50;2252.80;;;;;;5030109;28;20029;-58
2021/12/31 03:07:18;;;;;;;34.25;23.30;;;230.40;2252.80;;;;;;5030248;28;20116;-58
2021/12/31 03:09:47;;;;;;;39.97;24.80;;;230.50;2252.80;;;;;;5030134;28;20021;-58
2021/12/31 03:12:14;;;;;;;51.28;33.83;;;230.60;2252.80;;;;;;5029946;28;20030;-58
2021/12/31 03:14:44;;;;;;;50.97;35.03;;;230.60;2252.80;;;;;;5030261;28;20114;-58
2021/12/31 03:17:10;;;;;;;46.50;32.10;;;230.50;2252.80;;;;;;5030185;28;20148;-57
2021/12/31 03:19:37;;;;;;;29.67;19.42;;;230.50;2252.80;;;;;;5030067;28;20052;-58
2021/12/31 03:22:03;;;;;;;24.67;19.55;;;230.50;2252.80;;;;;;5030089;28;20025;-59
2021/12/31 03:24:29;;;;;;;28.83;19.55;;;230.60;2252.80;;;;;;5030232;28;20021;-57
2021/12/31 03:26:54;;;;;;;41.00;27.67;;;230.60;2252.80;;;;;;5030006;28;20044;-59
2021/12/31 03:29:21;;;;;;;25.75;16.88;;;230.60;2252.80;;;;;;5030826;28;20018;-58
2021/12/31 03:31:46;;;;;;;24.70;17.17;;;230.70;2252.80;;;;;;5033682;28;20487;-58
2021/12/31 03:34:14;;;;;;;35.97;24.65;;;230.70;2252.80;;;;;;5034073;28;20083;-58
2021/12/31 03:36:41;;;;;;;39.25;26.73;;;230.40;2252.80;;;;;;5034166;28;20103;-58
2021/12/31 03:39:07;;;;;;;38.35;26.65;;;205.70;2252.80;;;;;;5034003;28;20053;-59
2021/12/31 03:41:33;;;;;;;53.92;33.35;;;230.50;2252.80;;;;;;5033947;28;20384;-59
2021/12/31 03:43:59;;;;;;;29.55;20.65;;;230.40;2252.80;;;;;;5033821;28;20093;-58
2021/12/31 03:46:25;;;;;;;44.22;26.42;;;230.50;2252.80;;;;;;5033573;28;20108;-58
2021/12/31 03:48:50;;;;;;;29.35;17.90;;;230.50;2252.80;;;;;;5033676;28;20089;-58
2021/12/31 03:51:16;;;;;;;44.95;27.58;;;230.70;2252.80;;;;;;5033404;28;20028;-58
2021/12/31 03:53:42;;;;;;;32.70;20.92;;;230.80;2252.80;;;;;;5033834;28;20022;-58
2021/12/31 03:56:08;;;;;;;57.28;31.95;;;230.80;2252.80;;;;;;5033517;28;20017;-59
2021/12/31 03:58:33;;;;;;;51.53;31.58;;;230.80;2252.80;;;;;;5033514;28;20029;-59
2021/12/31 04:00:59;;;;;;;49.88;30.67;;;230.70;2252.80;;;;;;5033287;28;20513;-58
2021/12/31 04:03:25;;;;;;;28.42;20.25;;;230.70;2252.80;;;;;;5033224;28;20132;-58
2021/12/31 04:05:51;;;;;;;35.22;23.20;;;230.70;2252.80;;;;;;5033240;28;20026;-58
2021/12/31 04:08:17;;;;;;;53.03;35.20;;;230.70;2252.80;;;;;;5033345;28;20112;-58
2021/12/31 04:10:43;;;;;;;147.23;89.53;;;230.50;2252.80;;;;;;5033148;28;20040;-58
2021/12/31 04:13:09;;;;;;;129.98;89.90;;;230.40;2252.80;;;;;;5033364;28;20029;-59
2021/12/31 04:15:35;;;;;;;138.77;94.90;;;230.40;2252.80;;;;;;5033426;28;20026;-59
2021/12/31 04:18:01;;;;;;;139.05;96.18;;;205.70;2252.80;;;;;;5033226;28;20352;-58
2021/12/31 04:20:36;;;;;;;111.50;76.65;;;205.70;2252.80;;;;;;5033023;28;20390;-58
2021/12/31 04:23:07;;;;;;;96.15;64.38;;;230.50;2252.80;;;;;;5033107;28;20036;-59
2021/12/31 04:25:32;;;;;;;109.40;71.97;;;230.40;2252.80;;;;;;5033117;28;20024;-58
2021/12/31 04:27:58;;;;;;;92.35;62.08;;;230.40;2252.80;;;;;;5032988;28;20120;-58
2021/12/31 04:30:24;;;;;;;100.72;66.55;;;230.40;2252.80;;;;;;5032837;28;20026;-58
2021/12/31 04:32:50;;;;;;;70.30;46.25;;;230.40;2252.80;;;;;;5032926;28;20029;-62
2021/12/31 04:35:18;;;;;;;55.35;35.75;;;205.70;2252.80;;;;;;5032484;28;20021;-58
2021/12/31 04:37:44;;;;;;;42.22;27.77;;;230.40;2252.80;;;;;;5032746;28;20049;-58
2021/12/31 04:40:12;;;;;;;47.38;31.42;;;230.40;2252.80;;;;;;5032832;28;20025;-58
2021/12/31 04:42:44;;;;;;;35.97;25.80;;;230.50;2252.80;;;;;;5032442;28;20040;-58
2021/12/31 04:45:12;;;;;;;45.20;29.92;;;230.70;2252.80;;;;;;5032877;28;20029;-58
2021/12/31 04:47:39;;;;;;;24.85;15.70;;;230.70;2252.80;;;;;;5032661;28;20033;-58
2021/12/31 04:50:06;;;;;;;187.75;88.47;;;230.80;2252.80;;;;;;5032624;28;20024;-58
2021/12/31 04:52:31;;;;;;;129.82;60.53;;;230.90;2252.80;;;;;;5032783;28;20033;-58
2021/12/31 04:54:58;;;;;;;66.72;33.53;;;230.90;2252.80;;;;;;5032691;28;20094;-57
2021/12/31 04:57:25;;;;;;;44.42;26.33;;;230.90;2252.80;;;;;;5032242;28;20553;-57
2021/12/31 04:59:51;;;;;;;62.92;39.80;;;230.90;2252.80;;;;;;5032421;28;20044;-57
2021/12/31 05:02:17;;;;;;;79.07;47.35;;;230.90;2252.80;;;;;;5038395;28;20506;-57
2021/12/31 05:04:43;;;;;;;88.82;57.08;;;230.80;2252.80;;;;;;5041160;28;20021;-57
2021/12/31 05:07:09;;;;;;;72.80;48.13;;;230.50;2252.80;;;;;;5040002;28;20032;-57
2021/12/31 05:09:35;;;;;;;46.75;30.40;;;230.40;2252.80;;;;;;5032277;28;20383;-59
2021/12/31 05:12:04;;;;;;;36.92;25.40;;;230.50;2252.80;;;;;;5032149;28;20029;-58
2021/12/31 05:14:30;;;;;;;33.88;23.38;;;230.70;2252.80;;;;;;5032224;28;20471;-58
2021/12/31 05:16:56;;;;;;;28.83;18.70;;;230.70;2252.80;;;;;;5031928;28;20112;-57
2021/12/31 05:19:21;;;;;;;91.35;43.38;;;230.70;2252.80;;;;;;5032081;28;20468;-58
2021/12/31 05:21:47;;;;;;;61.78;30.40;;;230.70;2252.80;;;;;;5032080;28;20030;-58
2021/12/31 05:24:14;;;;;;;28.70;17.85;;;230.80;2252.80;;;;;;5031720;28;20032;-57
2021/12/31 05:26:40;;;;;;;51.20;29.27;;;230.70;2252.80;;;;;;5031949;28;20042;-57
2021/12/31 05:29:06;;;;;;;45.95;27.92;;;230.80;2252.80;;;;;;5031894;28;20025;-58
2021/12/31 05:31:31;;;;;;;49.15;31.48;;;230.80;2252.80;;;;;;5031914;28;20045;-58
2021/12/31 05:33:57;;;;;;;66.90;44.38;;;230.60;2252.80;;;;;;5031747;28;20038;-57
2021/12/31 05:36:23;;;;;;;69.88;47.00;;;230.50;2252.80;;;;;;5031489;28;20052;-58
2021/12/31 05:38:48;;;;;;;68.65;46.80;;;230.50;2252.80;;;;;;5031589;28;20025;-57
2021/12/31 05:41:14;;;;;;;80.78;51.35;;;230.60;2252.80;;;;;;5031434;28;20029;-59
2021/12/31 05:43:40;;;;;;;90.15;56.15;;;230.60;2252.80;;;;;;5031496;28;20029;-57
2021/12/31 05:46:06;;;;;;;100.07;61.90;;;230.50;2252.80;;;;;;5031610;28;20036;-58
2021/12/31 05:48:31;;;;;;;143.85;82.22;;;230.60;2252.80;;;;;;5031370;28;20036;-60
2021/12/31 05:50:58;;;;;;;102.53;61.90;;;230.70;2252.80;;;;;;5029804;28;20087;-58
2021/12/31 05:53:23;;;;;;;42.40;28.83;;;230.70;2252.80;;;;;;5030561;28;20447;-57
2021/12/31 05:55:49;;;;;;;154.10;101.20;;;230.60;2252.80;;;;;;5031114;28;20026;-57
2021/12/31 05:58:15;;;;;;;136.43;91.55;;;230.50;2252.80;;;;;;5031072;28;20040;-57
2021/12/31 06:00:41;;;;;;;107.65;68.35;;;230.60;2252.80;;;;;;5031127;28;20089;-57
2021/12/31 06:03:07;;;;;;;138.75;86.53;;;230.60;2252.80;;;;;;5042696;28;20370;-59
2021/12/31 06:05:33;;;;;;;55.92;41.00;;;230.50;2252.80;;;;;;5050653;28;20071;-58
2021/12/31 06:07:59;;;;;;;196.25;113.50;;;230.60;2252.80;;;;;;5050873;28;20132;-58
2021/12/31 06:10:25;;;;;;;68.32;42.30;;;230.60;2252.80;;;;;;5050694;28;20528;-57
2021/12/31 06:12:56;;;;;;;35.60;20.63;;;230.70;2252.80;;;;;;5052739;28;20170;-57
2021/12/31 06:15:23;;;;;;;47.95;31.27;;;230.80;2252.80;;;;;;5053323;28;20013;-59
2021/12/31 06:17:50;;;;;;;46.60;32.33;;;230.70;2252.80;;;;;;5052531;28;20036;-57
2021/12/31 06:20:16;;;;;;;113.82;76.53;;;230.50;2252.80;;;;;;5052906;28;20027;-58
2021/12/31 06:22:42;;;;;;;244.90;167.23;;;230.60;2252.80;;;;;;5050795;28;20450;-62
2021/12/31 06:25:08;;;;;;;296.73;206.18;;;230.50;2252.80;;;;;;5051119;28;20031;-57
2021/12/31 06:27:33;;;;;;;194.50;135.32;;;205.60;2252.80;;;;;;5050595;28;20124;-64
2021/12/31 06:29:59;;;;;;;185.90;132.32;;;205.70;2252.80;;;;;;5050668;28;20049;-62
2021/12/31 06:32:25;;;;;;;233.63;160.73;;;230.40;2252.80;;;;;;5050527;28;20108;-63
2021/12/31 06:34:51;;;;;;;152.70;113.38;;;205.70;2252.80;;;;;;5050525;28;20036;-64
2021/12/31 06:37:16;;;;;;;68.78;48.80;;;205.70;2252.80;;;;;;5050218;28;20025;-62
2021/12/31 06:39:44;;;;;;;32.05;25.08;;;205.70;2252.80;;;;;;5050827;28;20021;-59
2021/12/31 06:42:10;;;;;;;36.95;23.63;;;230.40;2252.80;;;;;;5050735;28;20033;-61
2021/12/31 06:44:37;;;;;;;254.30;179.00;;;230.50;2252.80;;;;;;5050487;28;20383;-60
2021/12/31 06:47:03;;;;;;;247.10;168.27;;;205.50;2252.80;;;;;;5050147;28;20029;-58
2021/12/31 06:49:30;;;;;;;218.13;148.65;;;205.40;2252.80;;;;;;5050625;28;20017;-58
2021/12/31 06:51:56;;;;;;;191.93;138.23;;;205.40;2252.80;;;;;;5050113;28;20025;-59
2021/12/31 06:54:22;;;;;;;211.05;143.48;;;205.60;2252.80;;;;;;5050597;28;20032;-64
2021/12/31 06:56:47;;;;;;;206.23;148.27;;;205.60;2252.80;;;;;;5050205;28;20074;-57
2021/12/31 06:59:13;;;;;;;143.45;95.75;;;205.50;2252.80;;;;;;5049998;28;20048;-63
2021/12/31 07:01:39;;;;;;;162.02;112.60;;;205.20;2252.80;;;;;;5049956;28;20041;-59
2021/12/31 07:04:04;;;;;;;268.67;196.18;;;205.30;2252.80;;;;;;5049382;28;20155;-62
2021/12/31 07:06:30;;;;;;;253.68;177.55;;;205.30;2252.80;;;;;;5049851;28;20029;-64
2021/12/31 07:08:56;;;;;;;251.18;171.73;;;205.40;2252.80;;;;;;5049737;28;20037;-65
2021/12/31 07:11:22;;;;;;;235.75;165.38;;;205.20;2252.80;;;;;;5050085;28;20052;-63
2021/12/31 07:13:51;;;;;;;219.32;149.88;;;205.30;2252.80;;;;;;5050014;28;20375;-61
2021/12/31 07:16:18;;;;;;;202.52;144.10;;;205.50;2252.80;;;;;;5049814;28;20059;-62
2021/12/31 07:18:44;;;;;;;241.00;167.48;;;205.70;2252.80;;;;;;5049958;28;20099;-60
2021/12/31 07:21:10;;;;;;;254.15;186.32;;;230.50;2252.80;;;;;;5050263;28;20033;-60
2021/12/31 07:23:36;;;;;;;199.55;137.15;;;230.70;2252.80;;;;;;5049935;28;20037;-57
2021/12/31 07:26:02;;;;;;;255.77;178.45;;;230.80;2252.80;;;;;;5050331;28;20468;-60
2021/12/31 07:28:28;;;;;;;202.23;144.40;;;230.80;2252.80;;;;;;5050013;28;20037;-58
2021/12/31 07:30:54;;;;;;;134.60;94.97;;;230.90;2252.80;;;;;;5049838;28;20039;-61
2021/12/31 07:33:22;;;;;;;188.02;136.02;;;231.00;2252.80;;;;;;5049981;28;20387;-57
2021/12/31 07:35:52;;;;;;;197.90;135.63;;;231.30;2252.80;;;;;;5049965;28;20033;-58
2021/12/31 07:38:32;;;;;;;112.20;82.10;;;256.00;2252.80;;;;;;5049720;28;20100;-57
2021/12/31 07:40:58;;;;;;;277.38;200.60;;;231.10;2252.80;;;;;;5049794;28;20075;-59
2021/12/31 07:43:23;;;;;;;244.45;187.10;;;230.90;2252.80;;;;;;5049778;28;20025;-57
2021/12/31 07:45:51;;;;;;;161.55;110.32;;;231.30;2252.80;;;;;;5049953;28;20090;-58
2021/12/31 07:48:17;;;;;;;65.88;47.80;;;231.30;2252.80;;;;;;5049536;28;20029;-58
2021/12/31 07:50:43;;;;;;;57.95;39.13;;;256.20;2252.80;;;;;;5049552;28;20053;-57
2021/12/31 07:53:09;;;;;;;55.45;36.97;;;256.30;2252.80;;;;;;5049589;28;20474;-59
2021/12/31 07:55:36;;;;;;;53.53;40.22;;;256.60;2252.80;;;;;;5049644;28;20021;-56
2021/12/31 07:58:03;;;;;;;32.47;23.45;;;281.60;2278.40;;;;;;5049690;28;20029;-57
2021/12/31 08:00:29;;;;;;;66.93;44.70;;;281.70;2278.40;;;;;;5049220;28;20036;-57
2021/12/31 08:02:55;;;;;;;31.10;22.77;;;281.70;2278.40;;;;;;5049380;28;20044;-59
2021/12/31 08:05:22;;;;;;;41.80;30.45;;;282.00;2278.40;;;;;;5049452;28;20048;-57
2021/12/31 08:07:48;;;;;;;112.65;82.88;;;282.10;2278.40;;;;;;5049559;28;20447;-57
2021/12/31 08:10:14;;;;;;;370.13;287.60;;;282.20;2278.40;;;;;;5049283;28;20029;-57
2021/12/31 08:12:39;;;;;;;437.90;338.85;;;282.10;2278.40;;;;;;5049278;28;20383;-57
2021/12/31 08:15:06;;;;;;;406.52;320.85;;;281.70;2278.40;;;;;;5049437;28;20017;-56
2021/12/31 08:17:31;;;;;;;315.67;253.98;;;256.60;2252.80;;;;;;5051984;28;20048;-57
2021/12/31 08:19:57;;;;;;;273.60;210.38;;;281.60;2278.40;;;;;;5052837;28;20386;-57
2021/12/31 08:22:24;;;;;;;243.98;195.68;;;281.70;2278.40;;;;;;5053008;28;20469;-57
2021/12/31 08:24:50;;;;;;;255.63;198.57;;;282.10;2278.40;;;;;;5053006;28;20025;-57
2021/12/31 08:27:16;;;;;;;248.15;190.38;;;282.20;2278.40;;;;;;5052823;28;20029;-58
2021/12/31 08:29:42;;;;;;;215.82;160.05;;;282.20;2278.40;;;;;;5052846;28;20036;-58
2021/12/31 08:32:08;;;;;;;208.13;167.40;;;282.30;2278.40;;;;;;5052637;28;20025;-57
2021/12/31 08:34:35;;;;;;;177.63;132.27;;;282.50;2278.40;;;;;;5052690;28;20043;-57
2021/12/31 08:37:01;;;;;;;206.65;152.50;;;282.50;2278.40;;;;;;5052810;28;20018;-57
2021/12/31 08:39:26;;;;;;;299.95;228.10;;;282.40;2278.40;;;;;;5052598;28;20122;-57
2021/12/31 08:41:52;;;;;;;315.63;239.15;;;282.00;2278.40;;;;;;5052856;28;20495;-57
2021/12/31 08:44:18;;;;;;;257.65;204.13;;;282.20;2278.40;;;;;;5052519;28;20029;-57
2021/12/31 08:46:45;;;;;;;324.63;245.85;;;282.30;2278.40;;;;;;5052274;28;20032;-57
2021/12/31 08:49:11;;;;;;;454.83;349.42;;;282.30;2278.40;;;;;;5052511;28;20025;-56
2021/12/31 08:51:37;;;;;;;472.65;362.08;;;281.60;2278.40;;;;;;5052455;28;20452;-57
2021/12/31 08:54:03;;;;;;;465.08;355.90;;;281.70;2278.40;;;;;;5052473;28;20025;-57
2021/12/31 08:56:29;;;;;;;448.35;335.08;;;281.60;2278.40;;;;;;5052262;28;20028;-57
2021/12/31 08:58:55;;;;;;;459.88;356.05;;;281.90;2278.40;;;;;;5052206;28;20029;-57
2021/12/31 09:01:20;;;;;;;466.48;374.13;;;282.10;2278.40;;;;;;5051823;28;20399;-57
2021/12/31 09:03:46;;;;;;;460.77;355.85;;;282.30;2278.40;;;;;;5051966;28;20029;-57
2021/12/31 09:06:12;;;;;;;445.10;343.83;;;282.40;2278.40;;;;;;5052318;28;20104;-57
2021/12/31 09:08:38;;;;;;;446.65;350.58;;;282.40;2278.40;;;;;;5051913;28;20060;-57
2021/12/31 09:11:04;;;;;;;510.73;402.05;;;282.50;2278.40;;;;;;5051923;28;20069;-57
2021/12/31 09:13:31;;;;;;;265.42;183.32;;;307.30;2304.00;;;;;;5051984;28;20064;-57
2021/12/31 09:15:57;;;;;;;95.97;67.88;;;307.30;2304.00;;;;;;5051768;28;20021;-56
2021/12/31 09:18:23;;;;;;;135.05;94.32;;;307.50;2304.00;;;;;;5051865;28;20052;-57
2021/12/31 09:20:52;;;;;;;383.42;298.50;;;307.80;2304.00;;;;;;5052030;28;20052;-57
2021/12/31 09:23:18;;;;;;;385.30;295.98;;;307.70;2304.00;;;;;;5051733;28;20029;-57
2021/12/31 09:25:43;;;;;;;426.77;337.33;;;307.70;2304.00;;;;;;5051709;28;20025;-57
2021/12/31 09:28:09;;;;;;;385.00;303.50;;;307.30;2304.00;;;;;;5051727;28;20040;-57
2021/12/31 09:30:35;;;;;;;314.70;240.60;;;307.20;2304.00;;;;;;5051553;28;20549;-57
2021/12/31 09:33:01;;;;;;;298.83;238.90;;;307.60;2304.00;;;;;;5051635;28;20033;-57
2021/12/31 09:35:26;;;;;;;336.45;258.55;;;307.80;2304.00;;;;;;5051430;28;20025;-57
2021/12/31 09:37:52;;;;;;;356.05;268.05;;;308.00;2304.00;;;;;;5051657;28;20044;-57
2021/12/31 09:40:19;;;;;;;364.80;284.15;;;308.10;2304.00;;;;;;5051714;28;20029;-57
2021/12/31 09:43:12;;;;;;;498.17;409.27;;;332.90;2329.60;;;;;;5051505;28;20028;-57
2021/12/31 09:45:40;;;;;;;497.75;403.25;;;307.80;2304.00;;;;;;5051630;28;20378;-57
2021/12/31 09:48:18;;;;;;;495.83;404.83;;;307.90;2304.00;;;;;;5051302;28;20040;-56
2021/12/31 09:50:46;;;;;;;494.02;401.85;;;332.90;2329.60;;;;;;5051060;28;20371;-56
2021/12/31 09:53:14;;;;;;;514.05;431.88;;;332.90;2329.60;;;;;;5051490;28;20503;-57
2021/12/31 09:55:41;;;;;;;510.23;403.17;;;332.90;2329.60;;;;;;5051173;28;20539;-56
2021/12/31 09:58:09;;;;;;;488.65;391.27;;;333.10;2329.60;;;;;;5051207;28;20021;-57
2021/12/31 10:00:36;;;;;;;503.75;406.67;;;333.30;2329.60;;;;;;5049492;28;20502;-56
2021/12/31 10:03:09;;;;;;;558.58;459.45;;;333.40;2329.60;;;;;;5051216;28;20164;-56
2021/12/31 10:05:43;;;;;;;566.97;459.38;;;333.00;2329.60;;;;;;5051005;28;20475;-57
2021/12/31 10:08:39;;;;;;;545.83;444.73;;;333.20;2329.60;;;;;;5050879;28;20049;-56
2021/12/31 10:11:09;;;;;;;497.10;405.10;;;333.40;2329.60;;;;;;5050587;28;20043;-57
2021/12/31 10:13:39;;;;;;;535.90;428.67;;;333.10;2329.60;;;;;;5049726;28;20374;-57
2021/12/31 10:16:06;;;;;;;533.42;423.70;;;332.90;2329.60;;;;;;5050832;28;20029;-57
2021/12/31 10:18:37;;;;;;;535.90;411.95;;;333.20;2329.60;;;;;;5051069;28;20025;-56
2021/12/31 10:21:05;;;;;;;500.45;399.15;;;333.30;2329.60;;;;;;5050604;28;20375;-57
2021/12/31 10:23:36;;;;;;;473.33;386.90;;;333.70;2329.60;;;;;;5050820;28;20025;-56
2021/12/31 10:26:14;;;;;;;620.50;506.42;;;358.60;2329.60;;;;;;5050648;28;20033;-56
2021/12/31 10:28:58;;;;;;;578.80;464.60;;;358.70;2329.60;;;;;;5049467;28;20128;-56
2021/12/31 10:31:25;;;;;;;517.05;429.33;;;358.90;2329.60;;;;;;5050423;28;20040;-56
2021/12/31 10:33:51;;;;;;;491.45;402.38;;;358.90;2329.60;;;;;;5050632;28;20036;-57
2021/12/31 10:36:36;;;;;;;327.88;263.98;;;358.90;2329.60;;;;;;5050263;28;20032;-57
2021/12/31 10:39:15;;;;;;;140.30;110.72;;;358.80;2329.60;;;;;;5050041;28;20029;-56
2021/12/31 10:41:41;;;;;;;119.22;92.63;;;358.80;2329.60;;;;;;5050421;28;20057;-56
2021/12/31 10:44:07;;;;;;;407.77;332.73;;;358.90;2329.60;;;;;;5050237;28;20064;-57
2021/12/31 10:46:32;;;;;;;413.52;339.13;;;358.70;2329.60;;;;;;5050087;28;20036;-58
2021/12/31 10:49:06;;;;;;;239.98;191.80;;;358.80;2329.60;;;;;;5050480;28;20029;-56
2021/12/31 10:51:45;;;;;;;109.15;87.00;;;358.80;2329.60;;;;;;5050383;28;20467;-56
2021/12/31 10:54:36;;;;;;;227.95;176.70;;;358.80;2329.60;;;;;;5050503;28;20025;-56
2021/12/31 10:57:02;;;;;;;159.55;124.97;;;358.90;2329.60;;;;;;5050364;28;20553;-57
2021/12/31 10:59:33;;;;;;;582.13;480.50;;;358.90;2329.60;;;;;;5050211;28;20487;-56
2021/12/31 11:01:59;;;;;;;573.25;467.30;;;358.70;2329.60;;;;;;5049851;28;20068;-56
2021/12/31 11:04:29;;;;;;;554.40;453.90;;;333.70;2329.60;;;;;;5050018;28;20036;-57
2021/12/31 11:06:55;;;;;;;550.92;451.70;;;333.70;2329.60;;;;;;5049699;28;20037;-57
2021/12/31 11:09:24;;;;;;;520.70;429.55;;;333.50;2329.60;;;;;;5050106;28;20025;-57
2021/12/31 11:11:52;;;;;;;624.42;497.42;;;333.60;2329.60;;;;;;5049893;28;20029;-56
2021/12/31 11:14:18;;;;;;;559.10;449.60;;;333.50;2329.60;;;;;;5049857;28;20039;-57
2021/12/31 11:16:43;;;;;;;545.65;432.88;;;333.40;2329.60;;;;;;5049702;28;20124;-56
2021/12/31 11:19:15;;;;;;;490.42;386.55;;;333.40;2329.60;;;;;;5050120;28;20063;-57
2021/12/31 11:21:41;;;;;;;414.27;314.95;;;333.40;2329.60;;;;;;5048706;28;20068;-57
2021/12/31 11:24:34;;;;;;;337.63;262.33;;;333.40;2329.60;;;;;;5050029;28;20032;-56
2021/12/31 11:27:25;;;;;;;301.93;231.13;;;333.30;2329.60;;;;;;5050184;28;20112;-56
2021/12/31 11:29:51;;;;;;;291.52;230.75;;;333.30;2329.60;;;;;;5049930;28;20345;-57
2021/12/31 11:32:17;;;;;;;296.83;234.70;;;333.50;2329.60;;;;;;5049532;28;20033;-57
2021/12/31 11:34:43;;;;;;;255.63;202.82;;;333.50;2329.60;;;;;;5049539;28;20025;-56
2021/12/31 11:37:21;;;;;;;270.25;210.55;;;333.40;2329.60;;;;;;5049747;28;20104;-58
2021/12/31 11:39:48;;;;;;;282.63;228.30;;;333.40;2329.60;;;;;;5049654;28;20032;-58
2021/12/31 11:42:13;;;;;;;317.10;253.70;;;333.50;2329.60;;;;;;5049643;28;20536;-56
2021/12/31 11:45:03;;;;;;;294.63;235.52;;;358.40;2329.60;;;;;;5049915;28;20120;-56
2021/12/31 11:47:31;;;;;;;255.90;201.95;;;358.70;2329.60;;;;;;5049736;28;20068;-56
2021/12/31 11:50:24;;;;;;;261.85;211.43;;;358.90;2329.60;;;;;;5049545;28;20040;-56
2021/12/31 11:53:01;;;;;;;249.00;199.27;;;359.00;2329.60;;;;;;5052776;28;20025;-56
2021/12/31 11:55:27;;;;;;;296.40;238.00;;;359.30;2329.60;;;;;;5053196;28;20021;-57